Lauder Hill, Florida
Current Conditions -  °F | °C
As of 1:53 PM on Thursday 18 Dec 2014 (Local Time) from KFXE Reporting Station
Scattered Clouds Scattered Clouds  
Wind Chill: 76°   Ceiling: Unl
Heat Index: 76°   Visibility: 10mi
Dew Point: 58°   Wind: 7mph
Humidity: 54%   Direction: NA
Pressure: 30.09"   Gusts: NA
Location:  26.2125°N, 80.2701°W
Report Text: KFXE 181853Z VRB06KT 10SM SCT150 24/14 A3009 RMK AO2 SLP190 T02440144
Loading
Personal Weather Stations






























Interactive Weather Map New forecast layout! Learn more

10-Day Weather Forecast

Advertisements
Track Severe Weather on mobile